Time;durP1;ratioP1;P1;durP2;ratioP2;P2;SDS_P1;SDS_P2;PMS_P1;PMS_P2;Temp;Humidity;BMP_temperature;BMP_pressure;BME280_temperature;BME280_humidity;BME280_pressure;Samples;Min_cycle;Max_cycle;Signal;HPM_P1;HPM_P2
2021/10/16 00:00:24;;;;;;;29.20;19.15;;;307.20;2124.80;;;;;;4938114;29;20027;-71
2021/10/16 00:02:50;;;;;;;25.25;18.40;;;307.20;2150.40;;;;;;4937828;29;20035;-71
2021/10/16 00:05:15;;;;;;;25.60;18.65;;;307.20;2124.80;;;;;;4938064;29;20056;-69
2021/10/16 00:07:41;;;;;;;24.50;18.10;;;307.20;2150.40;;;;;;4938007;29;20501;-70
2021/10/16 00:10:08;;;;;;;25.25;17.15;;;307.20;2124.80;;;;;;4937655;29;20130;-70
2021/10/16 00:12:34;;;;;;;22.70;17.55;;;307.20;2124.80;;;;;;4937555;29;20395;-69
2021/10/16 00:15:00;;;;;;;25.17;17.10;;;307.20;2150.40;;;;;;4937918;29;20039;-69
2021/10/16 00:17:25;;;;;;;28.80;17.42;;;307.20;2124.80;;;;;;4937559;29;20394;-70
2021/10/16 00:19:52;;;;;;;23.80;17.23;;;307.20;2150.40;;;;;;4938512;29;20031;-70
2021/10/16 00:22:20;;;;;;;23.48;16.42;;;307.20;2150.40;;;;;;4937488;29;20059;-70
2021/10/16 00:24:48;;;;;;;24.85;16.92;;;307.20;2150.40;;;;;;4937306;29;20048;-69
2021/10/16 00:27:14;;;;;;;23.48;16.70;;;307.20;2150.40;;;;;;4937669;29;20069;-69
2021/10/16 00:29:40;;;;;;;22.73;17.20;;;307.30;2124.80;;;;;;4937723;29;20070;-70
2021/10/16 00:32:06;;;;;;;22.63;17.13;;;307.30;2150.40;;;;;;4937270;29;20032;-69
2021/10/16 00:34:32;;;;;;;23.13;16.00;;;307.20;2124.80;;;;;;4937578;29;20036;-70
2021/10/16 00:36:57;;;;;;;24.30;17.02;;;307.20;2124.80;;;;;;4937645;29;20393;-70
2021/10/16 00:39:23;;;;;;;23.42;16.05;;;307.30;2124.80;;;;;;4937535;29;20110;-69
2021/10/16 00:41:49;;;;;;;22.48;16.25;;;307.30;2124.80;;;;;;4937458;29;20398;-70
2021/10/16 00:44:18;;;;;;;23.80;16.48;;;307.30;2124.80;;;;;;4937189;29;20481;-70
2021/10/16 00:46:44;;;;;;;23.88;16.73;;;307.30;2124.80;;;;;;4937013;29;20087;-69
2021/10/16 00:49:10;;;;;;;24.10;17.02;;;307.30;2124.80;;;;;;4937117;29;20040;-70
2021/10/16 00:51:37;;;;;;;22.25;16.25;;;307.30;2124.80;;;;;;4936964;29;20480;-69
2021/10/16 00:54:03;;;;;;;22.58;17.17;;;307.20;2124.80;;;;;;4936705;29;20374;-70
2021/10/16 00:56:29;;;;;;;23.48;16.15;;;307.20;2150.40;;;;;;4919931;29;20039;-70
2021/10/16 00:58:56;;;;;;;24.55;16.98;;;307.20;2124.80;;;;;;4937187;29;20545;-69
2021/10/16 01:01:22;;;;;;;21.63;15.65;;;307.20;2150.40;;;;;;4936910;29;20350;-69
2021/10/16 01:03:48;;;;;;;22.45;15.90;;;307.20;2124.80;;;;;;4919708;29;20143;-70
2021/10/16 01:06:14;;;;;;;23.25;16.65;;;307.20;2124.80;;;;;;4935223;29;20502;-70
2021/10/16 01:08:40;;;;;;;21.40;15.80;;;307.20;2150.40;;;;;;4936865;29;20031;-70
2021/10/16 01:11:06;;;;;;;20.95;15.63;;;307.20;2124.80;;;;;;4919310;29;20028;-70
2021/10/16 01:13:33;;;;;;;23.15;16.67;;;307.20;2124.80;;;;;;4936913;29;20039;-70
2021/10/16 01:15:59;;;;;;;25.40;18.08;;;307.20;2124.80;;;;;;4936816;29;20393;-69
2021/10/16 01:18:25;;;;;;;22.83;17.42;;;307.20;2124.80;;;;;;4936541;29;20048;-70
2021/10/16 01:21:05;;;;;;;22.13;17.27;;;307.30;2124.80;;;;;;4936778;29;20031;-70
2021/10/16 01:23:33;;;;;;;23.55;17.85;;;307.30;2099.20;;;;;;4936178;29;20044;-70
2021/10/16 01:26:01;;;;;;;23.40;16.83;;;307.20;2124.80;;;;;;4936487;29;20110;-70
2021/10/16 01:28:27;;;;;;;25.30;17.00;;;307.30;2099.20;;;;;;4936767;29;20036;-70
2021/10/16 01:30:54;;;;;;;24.65;17.08;;;307.20;2124.80;;;;;;4936492;29;20078;-69
2021/10/16 01:33:20;;;;;;;24.13;15.27;;;307.20;2124.80;;;;;;4936496;29;20178;-69
2021/10/16 01:36:05;;;;;;;25.92;17.58;;;307.20;2124.80;;;;;;4936563;29;20521;-69
2021/10/16 01:38:32;;;;;;;22.52;15.75;;;307.20;2124.80;;;;;;4936605;29;20039;-69
2021/10/16 01:40:59;;;;;;;26.95;17.67;;;307.20;2124.80;;;;;;4936284;29;20036;-69
2021/10/16 01:43:25;;;;;;;24.05;16.50;;;307.20;2124.80;;;;;;4936315;29;20044;-69
2021/10/16 01:45:52;;;;;;;23.05;16.48;;;307.20;2124.80;;;;;;4936169;29;20035;-69
2021/10/16 01:48:24;;;;;;;24.95;17.35;;;307.20;2124.80;;;;;;4936423;29;20036;-69
2021/10/16 01:50:52;;;;;;;19.67;15.32;;;307.20;2124.80;;;;;;4936491;29;20106;-70
2021/10/16 01:53:18;;;;;;;22.02;16.33;;;307.20;2124.80;;;;;;4936507;29;20372;-70
2021/10/16 01:55:44;;;;;;;23.52;16.75;;;307.20;2124.80;;;;;;4936078;29;20030;-71
2021/10/16 01:58:14;;;;;;;20.77;15.10;;;307.20;2124.80;;;;;;4936409;29;20122;-72
2021/10/16 02:00:42;;;;;;;21.73;15.98;;;307.20;2124.80;;;;;;4936394;29;20389;-71
2021/10/16 02:03:09;;;;;;;20.35;15.73;;;307.20;2124.80;;;;;;4936134;29;20044;-71
2021/10/16 02:05:40;;;;;;;25.23;16.88;;;307.20;2099.20;;;;;;4935977;29;20032;-70
2021/10/16 02:08:05;;;;;;;22.10;15.18;;;307.20;2124.80;;;;;;4936272;29;20040;-70
2021/10/16 02:10:31;;;;;;;22.85;15.80;;;307.20;2124.80;;;;;;4936255;29;20102;-71
2021/10/16 02:12:57;;;;;;;22.40;15.60;;;307.20;2124.80;;;;;;4936368;29;20047;-71
2021/10/16 02:15:22;;;;;;;24.05;15.93;;;307.20;2124.80;;;;;;4936261;29;20073;-70
2021/10/16 02:17:48;;;;;;;23.35;17.05;;;307.20;2124.80;;;;;;4936092;29;20043;-71
2021/10/16 02:20:14;;;;;;;21.20;15.40;;;307.20;2150.40;;;;;;4936269;29;20115;-71
2021/10/16 02:22:40;;;;;;;22.65;16.05;;;307.20;2124.80;;;;;;4936154;29;20389;-71
2021/10/16 02:25:06;;;;;;;23.95;16.70;;;307.20;2124.80;;;;;;4935843;29;20094;-71
2021/10/16 02:27:32;;;;;;;20.00;15.35;;;307.20;2150.40;;;;;;4936140;29;20039;-70
2021/10/16 02:29:57;;;;;;;21.65;16.00;;;307.20;2124.80;;;;;;4936267;29;20050;-71
2021/10/16 02:32:23;;;;;;;23.85;16.30;;;307.20;2150.40;;;;;;4935982;29;20035;-71
2021/10/16 02:34:49;;;;;;;27.08;17.48;;;307.20;2124.80;;;;;;4937780;29;20156;-72
2021/10/16 02:37:14;;;;;;;23.95;16.63;;;307.20;2124.80;;;;;;4939440;29;20409;-70
2021/10/16 02:39:40;;;;;;;21.67;15.55;;;307.20;2150.40;;;;;;4939751;29;20039;-71
2021/10/16 02:42:06;;;;;;;24.50;16.23;;;307.20;2124.80;;;;;;4939783;29;20525;-71
2021/10/16 02:44:32;;;;;;;21.95;17.02;;;307.20;2150.40;;;;;;4939441;29;20058;-71
2021/10/16 02:46:58;;;;;;;23.50;16.63;;;307.20;2124.80;;;;;;4939233;29;20028;-70
2021/10/16 02:49:24;;;;;;;22.38;17.30;;;307.20;2124.80;;;;;;4939349;29;20541;-70
2021/10/16 02:51:49;;;;;;;27.65;19.73;;;307.20;2150.40;;;;;;4939122;29;20135;-71
2021/10/16 02:54:16;;;;;;;25.33;17.90;;;307.20;2124.80;;;;;;4939478;29;20032;-70
2021/10/16 02:56:41;;;;;;;26.42;18.70;;;307.20;2124.80;;;;;;4939276;29;20091;-70
2021/10/16 02:59:07;;;;;;;26.73;18.70;;;307.20;2150.40;;;;;;4939301;29;20055;-72
2021/10/16 03:01:33;;;;;;;25.08;18.25;;;307.20;2124.80;;;;;;4938541;29;20568;-73
2021/10/16 03:03:59;;;;;;;25.73;17.92;;;307.20;2150.40;;;;;;4939157;29;20048;-73
2021/10/16 03:06:25;;;;;;;26.15;18.38;;;307.20;2124.80;;;;;;4938881;29;20038;-71
2021/10/16 03:08:50;;;;;;;24.98;18.63;;;307.20;2150.40;;;;;;4939103;29;20036;-71
2021/10/16 03:11:16;;;;;;;26.33;18.08;;;307.20;2150.40;;;;;;4939157;29;20442;-71
2021/10/16 03:13:42;;;;;;;23.83;17.75;;;307.20;2124.80;;;;;;4938787;29;20039;-71
2021/10/16 03:16:08;;;;;;;27.08;18.08;;;307.20;2150.40;;;;;;4939072;29;20378;-71
2021/10/16 03:18:33;;;;;;;24.35;17.73;;;307.20;2124.80;;;;;;4938729;29;20040;-71
2021/10/16 03:21:00;;;;;;;24.17;17.30;;;307.20;2124.80;;;;;;4938918;29;20028;-69
2021/10/16 03:23:26;;;;;;;24.77;17.75;;;307.20;2150.40;;;;;;4938654;29;20047;-69
2021/10/16 03:25:51;;;;;;;21.23;16.60;;;307.20;2124.80;;;;;;4938666;29;20040;-69
2021/10/16 03:28:17;;;;;;;25.15;17.88;;;307.20;2124.80;;;;;;4938803;29;20039;-70
2021/10/16 03:30:43;;;;;;;26.27;17.83;;;307.20;2124.80;;;;;;4938835;29;20472;-70
2021/10/16 03:33:09;;;;;;;26.50;18.20;;;307.20;2099.20;;;;;;4938439;29;20042;-70
2021/10/16 03:35:35;;;;;;;20.27;15.43;;;307.20;2124.80;;;;;;4938670;29;20032;-70
2021/10/16 03:38:01;;;;;;;23.85;16.13;;;307.20;2099.20;;;;;;4938569;29;20398;-70
2021/10/16 03:40:26;;;;;;;20.75;15.32;;;307.20;2099.20;;;;;;4938276;29;20039;-70
2021/10/16 03:42:52;;;;;;;23.60;16.45;;;307.20;2124.80;;;;;;4938450;29;20427;-69
2021/10/16 03:45:20;;;;;;;24.95;17.08;;;307.20;2099.20;;;;;;4938134;29;20036;-69
2021/10/16 03:47:46;;;;;;;25.23;17.67;;;307.20;2124.80;;;;;;4938155;29;20039;-70
2021/10/16 03:50:12;;;;;;;23.63;17.42;;;307.20;2099.20;;;;;;4938451;29;20087;-70
2021/10/16 03:52:38;;;;;;;25.95;18.45;;;307.20;2099.20;;;;;;4938361;29;20036;-70
2021/10/16 03:55:04;;;;;;;25.73;17.40;;;307.20;2124.80;;;;;;4937742;29;20060;-70
2021/10/16 03:57:30;;;;;;;28.88;18.50;;;307.20;2099.20;;;;;;4937901;29;20031;-70
2021/10/16 03:59:56;;;;;;;25.70;17.67;;;307.20;2124.80;;;;;;4938024;29;20118;-69
2021/10/16 04:02:21;;;;;;;26.63;18.17;;;307.20;2099.20;;;;;;4938149;29;20032;-71
2021/10/16 04:04:47;;;;;;;28.10;18.23;;;307.20;2099.20;;;;;;4923537;29;20064;-71
2021/10/16 04:07:13;;;;;;;23.80;17.65;;;307.20;2124.80;;;;;;4918644;29;20068;-71
2021/10/16 04:09:38;;;;;;;25.23;17.15;;;307.20;2099.20;;;;;;4918193;29;20123;-72
2021/10/16 04:12:05;;;;;;;21.83;16.70;;;307.20;2099.20;;;;;;4918741;29;20039;-70
2021/10/16 04:14:31;;;;;;;24.88;17.35;;;307.30;2099.20;;;;;;4918885;29;20119;-70
2021/10/16 04:16:56;;;;;;;22.88;16.48;;;307.30;2099.20;;;;;;4918163;29;20127;-70
2021/10/16 04:19:22;;;;;;;24.30;18.00;;;307.20;2099.20;;;;;;4918834;29;20028;-70
2021/10/16 04:21:48;;;;;;;24.83;17.95;;;307.20;2099.20;;;;;;4918720;29;20036;-70
2021/10/16 04:24:14;;;;;;;25.23;17.63;;;307.30;2099.20;;;;;;4918541;29;20498;-70
2021/10/16 04:26:39;;;;;;;22.55;16.65;;;307.30;2099.20;;;;;;4918627;29;20043;-70
2021/10/16 04:29:05;;;;;;;24.55;17.45;;;307.30;2073.60;;;;;;4918951;29;20029;-71
2021/10/16 04:31:31;;;;;;;24.17;17.80;;;307.30;2099.20;;;;;;4919123;29;20028;-70
2021/10/16 04:33:57;;;;;;;33.45;18.58;;;307.30;2124.80;;;;;;4918337;29;20042;-72
2021/10/16 04:36:22;;;;;;;29.02;19.02;;;307.40;2124.80;;;;;;4918237;29;20120;-73
2021/10/16 04:38:50;;;;;;;30.42;18.40;;;307.40;2099.20;;;;;;4918161;29;20040;-73
2021/10/16 04:41:16;;;;;;;28.08;19.63;;;307.40;2099.20;;;;;;4918430;29;20080;-72
2021/10/16 04:43:43;;;;;;;27.80;18.10;;;307.40;2099.20;;;;;;4918304;29;20072;-73
2021/10/16 04:46:09;;;;;;;28.63;18.92;;;307.40;2099.20;;;;;;4918320;29;20095;-75
2021/10/16 04:48:45;;;;;;;24.10;18.05;;;307.50;2073.60;;;;;;4918159;29;20036;-70
2021/10/16 04:51:12;;;;;;;29.25;18.02;;;307.50;2073.60;;;;;;4910433;29;20051;-71
2021/10/16 04:53:38;;;;;;;24.63;17.88;;;307.40;2073.60;;;;;;4918306;29;20410;-71
2021/10/16 04:56:05;;;;;;;25.20;17.25;;;307.40;2073.60;;;;;;4918145;29;20471;-72
2021/10/16 04:58:30;;;;;;;22.17;16.48;;;307.40;2099.20;;;;;;4917614;29;20044;-72
2021/10/16 05:00:56;;;;;;;22.48;17.02;;;307.40;2073.60;;;;;;4918363;29;20120;-69
2021/10/16 05:03:22;;;;;;;23.67;16.70;;;307.50;2073.60;;;;;;4917929;29;20052;-72
2021/10/16 05:05:48;;;;;;;24.08;17.30;;;307.50;2073.60;;;;;;4918090;29;20041;-71
2021/10/16 05:08:13;;;;;;;25.30;17.30;;;307.50;2073.60;;;;;;4917844;29;20367;-71
2021/10/16 05:10:39;;;;;;;23.73;17.98;;;307.50;2073.60;;;;;;4917710;29;20056;-71
2021/10/16 05:13:05;;;;;;;25.00;18.35;;;307.50;2048.00;;;;;;4917972;29;20062;-71
2021/10/16 05:15:31;;;;;;;25.73;19.58;;;307.50;2048.00;;;;;;4917941;29;20475;-72
2021/10/16 05:17:56;;;;;;;25.70;18.60;;;307.50;2048.00;;;;;;4917248;29;20046;-72
2021/10/16 05:20:22;;;;;;;26.60;18.65;;;307.50;2048.00;;;;;;4917678;29;20356;-71
2021/10/16 05:22:48;;;;;;;25.27;19.42;;;307.50;2048.00;;;;;;4917517;29;20040;-71
2021/10/16 05:25:15;;;;;;;31.67;22.27;;;307.50;2048.00;;;;;;4917559;29;20059;-70
2021/10/16 05:27:41;;;;;;;32.95;21.88;;;307.50;2048.00;;;;;;4917676;29;20067;-69
2021/10/16 05:30:08;;;;;;;30.25;22.15;;;307.60;2048.00;;;;;;4917472;29;20386;-69
2021/10/16 05:32:35;;;;;;;32.22;21.88;;;307.50;2048.00;;;;;;4916857;29;20071;-72
2021/10/16 05:35:00;;;;;;;44.42;24.95;;;307.50;2048.00;;;;;;4917172;29;20040;-71
2021/10/16 05:37:26;;;;;;;47.35;28.10;;;307.60;2048.00;;;;;;4917542;29;20032;-71
2021/10/16 05:39:52;;;;;;;60.20;29.10;;;307.60;2048.00;;;;;;4917518;29;20036;-71
2021/10/16 05:42:18;;;;;;;66.70;31.20;;;307.50;2048.00;;;;;;4918170;29;20060;-70
2021/10/16 05:44:44;;;;;;;77.15;34.15;;;307.60;2048.00;;;;;;4917500;29;20040;-70
2021/10/16 05:47:10;;;;;;;70.38;34.58;;;307.60;2048.00;;;;;;4909539;29;20037;-71
2021/10/16 05:49:36;;;;;;;70.85;32.88;;;307.60;2048.00;;;;;;4917592;29;20048;-71
2021/10/16 05:52:03;;;;;;;61.40;29.27;;;307.70;2048.00;;;;;;4917232;29;20403;-70
2021/10/16 05:54:28;;;;;;;49.05;26.08;;;307.70;2048.00;;;;;;4917555;29;20044;-70
2021/10/16 05:56:54;;;;;;;48.65;25.55;;;307.70;2048.00;;;;;;4918259;29;20479;-70
2021/10/16 05:59:20;;;;;;;39.85;25.85;;;307.70;2048.00;;;;;;4934535;29;20495;-70
2021/10/16 06:01:46;;;;;;;41.65;24.23;;;307.70;2048.00;;;;;;4934010;29;20066;-71
2021/10/16 06:04:11;;;;;;;44.83;26.40;;;307.70;2048.00;;;;;;4934228;29;20110;-70
2021/10/16 06:06:37;;;;;;;41.50;24.52;;;307.70;2048.00;;;;;;4934631;29;20051;-69
2021/10/16 06:09:03;;;;;;;42.90;24.30;;;307.70;2048.00;;;;;;4935580;29;20389;-70
2021/10/16 06:11:29;;;;;;;38.00;24.10;;;307.70;2048.00;;;;;;4939975;29;20035;-70
2021/10/16 06:13:55;;;;;;;37.13;23.55;;;307.70;2048.00;;;;;;4922903;29;20087;-69
2021/10/16 06:16:20;;;;;;;33.42;23.48;;;307.70;2048.00;;;;;;4939850;29;20056;-70
2021/10/16 06:18:46;;;;;;;33.85;22.98;;;307.70;2048.00;;;;;;4939721;29;20110;-70
2021/10/16 06:21:12;;;;;;;35.50;24.20;;;307.70;2048.00;;;;;;4939904;29;20072;-70
2021/10/16 06:23:38;;;;;;;38.97;24.38;;;307.70;2048.00;;;;;;4939809;29;20494;-70
2021/10/16 06:26:04;;;;;;;38.08;25.20;;;307.70;2048.00;;;;;;4939245;29;20055;-70
2021/10/16 06:28:30;;;;;;;36.03;23.35;;;307.70;2048.00;;;;;;4939877;29;20114;-71
2021/10/16 06:30:56;;;;;;;34.80;23.95;;;307.70;2048.00;;;;;;4939690;29;20372;-72
2021/10/16 06:33:24;;;;;;;36.25;24.65;;;307.80;2048.00;;;;;;4939391;29;20040;-71
2021/10/16 06:35:50;;;;;;;37.25;24.70;;;307.80;2048.00;;;;;;4939494;29;20048;-71
2021/10/16 06:38:16;;;;;;;42.85;25.67;;;307.80;2048.00;;;;;;4939645;29;20040;-70
2021/10/16 06:40:42;;;;;;;38.50;24.50;;;307.90;2048.00;;;;;;4939545;29;20046;-70
2021/10/16 06:43:08;;;;;;;41.42;24.52;;;307.90;2048.00;;;;;;4939477;29;20043;-70
2021/10/16 06:45:33;;;;;;;45.83;27.90;;;307.90;2022.40;;;;;;4939590;29;20028;-71
2021/10/16 06:47:59;;;;;;;46.83;30.23;;;307.90;2022.40;;;;;;4921358;29;20094;-71
2021/10/16 06:50:25;;;;;;;46.50;30.48;;;307.90;2022.40;;;;;;4939604;29;20070;-70
2021/10/16 06:52:51;;;;;;;44.72;29.70;;;307.90;2022.40;;;;;;4939620;29;20369;-71
2021/10/16 06:55:16;;;;;;;47.80;29.38;;;308.00;2022.40;;;;;;4939456;29;20040;-71
2021/10/16 06:57:42;;;;;;;49.35;30.92;;;308.00;2022.40;;;;;;4939359;29;20043;-70
2021/10/16 07:00:08;;;;;;;43.80;30.05;;;308.00;1996.80;;;;;;4939084;29;20412;-70
2021/10/16 07:02:34;;;;;;;45.80;29.48;;;308.00;1996.80;;;;;;4939023;29;20038;-71
2021/10/16 07:05:00;;;;;;;41.42;26.70;;;308.00;1996.80;;;;;;4939287;29;20146;-70
2021/10/16 07:07:26;;;;;;;45.22;27.17;;;308.10;1996.80;;;;;;4939206;29;20035;-70
2021/10/16 07:09:51;;;;;;;44.70;28.65;;;308.10;1996.80;;;;;;4938590;29;20043;-72
2021/10/16 07:12:18;;;;;;;50.15;32.88;;;332.80;2073.60;;;;;;4939031;29;20027;-71
2021/10/16 07:14:44;;;;;;;54.63;34.75;;;332.80;2073.60;;;;;;4938899;29;20039;-71
2021/10/16 07:17:10;;;;;;;87.03;52.22;;;332.90;2048.00;;;;;;4938873;29;20039;-71
2021/10/16 07:19:35;;;;;;;67.95;41.85;;;332.90;2048.00;;;;;;4938585;29;20035;-71
2021/10/16 07:22:02;;;;;;;55.50;34.00;;;332.90;2022.40;;;;;;4938565;29;20123;-71
2021/10/16 07:24:27;;;;;;;44.85;29.23;;;333.00;2048.00;;;;;;4938445;29;20512;-72
2021/10/16 07:26:55;;;;;;;39.80;26.00;;;333.00;2022.40;;;;;;4939328;29;20107;-72
2021/10/16 07:29:22;;;;;;;34.90;24.38;;;333.00;2022.40;;;;;;4938825;29;20407;-71
2021/10/16 07:31:49;;;;;;;33.38;25.05;;;333.00;2022.40;;;;;;4938153;29;20032;-71
2021/10/16 07:34:15;;;;;;;31.80;22.60;;;333.00;2022.40;;;;;;4938342;29;20478;-71
2021/10/16 07:36:42;;;;;;;34.92;25.63;;;333.10;1996.80;;;;;;4938508;29;20115;-71
2021/10/16 07:39:09;;;;;;;40.47;28.50;;;333.10;2022.40;;;;;;4938439;29;20043;-71
2021/10/16 07:41:35;;;;;;;39.30;25.90;;;333.10;1996.80;;;;;;4938273;29;20466;-72
2021/10/16 07:44:02;;;;;;;40.67;26.38;;;333.20;1996.80;;;;;;4938290;29;20126;-71
2021/10/16 07:46:28;;;;;;;37.55;24.13;;;333.20;2022.40;;;;;;4938538;29;20107;-71
2021/10/16 07:48:53;;;;;;;41.03;24.83;;;333.30;1996.80;;;;;;4938185;29;20526;-72
2021/10/16 07:51:19;;;;;;;48.47;27.83;;;333.30;1971.20;;;;;;4938182;29;20090;-71
2021/10/16 07:53:45;;;;;;;68.18;37.30;;;333.30;1971.20;;;;;;4938137;29;20035;-72
2021/10/16 07:56:10;;;;;;;71.60;38.35;;;333.30;1996.80;;;;;;4938265;29;20035;-72
2021/10/16 07:58:39;;;;;;;49.88;32.20;;;333.40;1971.20;;;;;;4938298;29;20044;-72
2021/10/16 08:01:08;;;;;;;44.25;28.02;;;333.40;1945.60;;;;;;4938196;29;20027;-71
2021/10/16 08:03:34;;;;;;;43.95;25.58;;;333.40;1971.20;;;;;;4937785;29;20058;-72
2021/10/16 08:06:02;;;;;;;41.47;24.63;;;333.50;1996.80;;;;;;4937922;29;20048;-70
2021/10/16 08:08:28;;;;;;;41.38;23.33;;;333.50;1945.60;;;;;;4938114;29;20426;-69
2021/10/16 08:10:55;;;;;;;35.13;23.98;;;333.60;1945.60;;;;;;4938006;29;20099;-69
2021/10/16 08:13:20;;;;;;;41.17;22.40;;;333.60;1920.00;;;;;;4937917;29;20480;-70
2021/10/16 08:15:47;;;;;;;66.80;23.92;;;333.70;1945.60;;;;;;4937817;29;20031;-70
2021/10/16 08:18:13;;;;;;;45.92;25.67;;;333.70;1920.00;;;;;;4937517;29;20050;-71
2021/10/16 08:20:38;;;;;;;50.80;26.02;;;333.70;1894.40;;;;;;4937373;29;20473;-71
2021/10/16 08:23:05;;;;;;;40.22;23.27;;;333.70;1868.80;;;;;;4937790;29;20102;-71
2021/10/16 08:25:32;;;;;;;37.80;25.08;;;333.70;1894.40;;;;;;4920154;29;20075;-71
2021/10/16 08:27:58;;;;;;;37.78;24.23;;;358.40;1868.80;;;;;;4937199;29;20043;-71
2021/10/16 08:30:24;;;;;;;33.53;21.95;;;358.40;1868.80;;;;;;4937686;29;20036;-71
2021/10/16 08:32:50;;;;;;;34.22;21.25;;;358.40;1868.80;;;;;;4936574;29;20036;-71
2021/10/16 08:35:16;;;;;;;44.47;22.33;;;358.40;1868.80;;;;;;4937303;29;20040;-72
2021/10/16 08:37:42;;;;;;;43.55;24.35;;;358.50;1945.60;;;;;;4937575;29;20046;-70
2021/10/16 08:40:08;;;;;;;49.33;26.08;;;358.50;1920.00;;;;;;4937372;29;20111;-70
2021/10/16 08:42:35;;;;;;;39.25;23.65;;;358.60;1894.40;;;;;;4936770;29;20494;-70
2021/10/16 08:45:03;;;;;;;33.03;21.23;;;358.60;1868.80;;;;;;4937493;29;20044;-70
2021/10/16 08:47:33;;;;;;;35.90;22.27;;;358.60;1868.80;;;;;;4937132;29;20482;-70
2021/10/16 08:50:00;;;;;;;27.60;19.95;;;358.60;1843.20;;;;;;4937269;29;20398;-70
2021/10/16 08:52:27;;;;;;;29.45;19.58;;;358.70;1843.20;;;;;;4936279;29;20131;-70
2021/10/16 08:54:52;;;;;;;29.60;20.80;;;358.70;1843.20;;;;;;4935530;29;20478;-69
2021/10/16 08:57:20;;;;;;;30.25;20.85;;;358.70;1868.80;;;;;;4935459;29;20036;-70
2021/10/16 08:59:46;;;;;;;27.10;18.77;;;358.80;1843.20;;;;;;4929586;29;20394;-70
2021/10/16 09:02:12;;;;;;;27.25;18.02;;;358.80;1817.60;;;;;;4935160;29;20488;-70
2021/10/16 09:04:38;;;;;;;25.02;17.90;;;358.80;1817.60;;;;;;4935484;29;20394;-70
2021/10/16 09:07:20;;;;;;;26.52;18.70;;;358.90;1792.00;;;;;;4930141;29;20020;-70
2021/10/16 09:09:48;;;;;;;22.85;17.27;;;358.90;1817.60;;;;;;4930980;29;20040;-70
2021/10/16 09:12:14;;;;;;;24.58;17.67;;;358.90;1843.20;;;;;;4934926;29;20087;-69
2021/10/16 09:14:49;;;;;;;28.95;18.58;;;359.00;1817.60;;;;;;4935012;29;20052;-70
2021/10/16 09:17:16;;;;;;;30.13;19.80;;;359.10;1817.60;;;;;;4935470;29;20036;-70
2021/10/16 09:19:43;;;;;;;25.35;18.30;;;359.10;1817.60;;;;;;4935129;29;20023;-70
2021/10/16 09:22:19;;;;;;;22.02;16.08;;;359.20;1792.00;;;;;;4935041;29;20494;-70
2021/10/16 09:24:47;;;;;;;19.20;14.32;;;359.20;1715.20;;;;;;4929985;29;20528;-70
2021/10/16 09:27:22;;;;;;;26.20;14.90;;;359.20;1689.60;;;;;;4935267;29;20039;-70
2021/10/16 09:30:00;;;;;;;26.02;15.45;;;359.20;1715.20;;;;;;4930902;29;20027;-70
2021/10/16 09:32:27;;;;;;;26.25;16.05;;;359.30;1715.20;;;;;;4930180;29;20389;-70
2021/10/16 09:35:08;;;;;;;24.13;16.88;;;359.30;1715.20;;;;;;4935032;29;20489;-70
2021/10/16 09:37:52;;;;;;;30.05;15.63;;;384.10;1689.60;;;;;;4932508;29;20027;-70
2021/10/16 09:40:33;;;;;;;23.43;15.10;;;384.10;1689.60;;;;;;4933482;29;20461;-70
2021/10/16 09:43:15;;;;;;;21.70;14.38;;;384.30;1689.60;;;;;;4933985;29;20043;-69
2021/10/16 09:45:41;;;;;;;21.33;14.77;;;384.30;1689.60;;;;;;4930974;29;20132;-70
2021/10/16 09:48:09;;;;;;;23.45;15.52;;;384.50;1689.60;;;;;;4934963;29;20044;-70
2021/10/16 09:50:35;;;;;;;25.35;14.43;;;384.60;1664.00;;;;;;4934834;29;20036;-68
2021/10/16 09:53:16;;;;;;;23.40;15.68;;;384.70;1638.40;;;;;;4934878;29;20048;-67
2021/10/16 09:55:42;;;;;;;26.77;15.15;;;384.70;1664.00;;;;;;4931472;29;20402;-67
2021/10/16 09:58:08;;;;;;;19.20;13.23;;;384.90;1638.40;;;;;;4934981;29;20071;-67
2021/10/16 10:00:37;;;;;;;17.25;12.00;;;409.60;1664.00;;;;;;4934681;29;20035;-67
2021/10/16 10:03:05;;;;;;;17.77;11.35;;;409.60;1612.80;;;;;;4934579;29;20031;-68
2021/10/16 10:05:31;;;;;;;16.52;10.45;;;409.60;1612.80;;;;;;4934707;29;20039;-67
2021/10/16 10:07:58;;;;;;;16.75;10.00;;;409.70;1587.20;;;;;;4934782;29;20059;-67
2021/10/16 10:10:24;;;;;;;13.48;10.15;;;409.80;1561.60;;;;;;4934779;29;20085;-68
2021/10/16 10:12:51;;;;;;;13.75;9.82;;;409.80;1536.00;;;;;;4934743;29;20038;-67
2021/10/16 10:15:17;;;;;;;20.25;11.43;;;409.90;1536.00;;;;;;4929833;29;20042;-67
2021/10/16 10:17:43;;;;;;;17.02;11.25;;;410.00;1536.00;;;;;;4935070;29;20036;-68
2021/10/16 10:20:12;;;;;;;14.10;9.45;;;410.00;1536.00;;;;;;4936327;29;20043;-67
2021/10/16 10:22:40;;;;;;;17.65;8.30;;;410.10;1510.40;;;;;;4935690;29;20059;-68
2021/10/16 10:25:25;;;;;;;11.85;7.80;;;410.10;1484.80;;;;;;4935875;29;20498;-68
2021/10/16 10:27:53;;;;;;;14.63;8.05;;;410.10;1459.20;;;;;;4936228;29;20031;-68
2021/10/16 10:30:34;;;;;;;12.63;8.05;;;410.20;1433.60;;;;;;4936611;29;20394;-67
2021/10/16 10:33:15;;;;;;;11.15;6.90;;;410.20;1459.20;;;;;;4918780;29;20036;-67
2021/10/16 10:36:07;;;;;;;18.58;8.88;;;410.20;1408.00;;;;;;4936217;29;20040;-72
2021/10/16 10:38:39;;;;;;;20.38;9.65;;;410.40;1510.40;;;;;;4877151;29;20033;-70
2021/10/16 10:41:23;;;;;;;315.35;27.05;;;410.50;1612.80;;;;;;4877472;29;20558;-78
2021/10/16 10:43:53;;;;;;;236.52;25.20;;;410.50;1459.20;;;;;;4877347;29;20057;-66
2021/10/16 10:46:29;;;;;;;93.05;14.35;;;435.30;1664.00;;;;;;4877655;29;20513;-68
2021/10/16 10:49:07;;;;;;;33.45;9.80;;;435.30;1408.00;;;;;;4877480;29;20029;-70
2021/10/16 10:51:37;;;;;;;20.75;10.82;;;435.20;1356.80;;;;;;4877458;29;20506;-69
2021/10/16 10:54:13;;;;;;;77.30;13.68;;;435.20;1331.20;;;;;;4877074;29;20104;-68
2021/10/16 10:56:40;;;;;;;41.97;11.63;;;435.30;1382.40;;;;;;4879886;29;20120;-68
2021/10/16 10:59:08;;;;;;;31.15;11.60;;;435.30;1382.40;;;;;;4880723;29;20146;-70
2021/10/16 11:01:51;;;;;;;18.73;8.30;;;435.30;1356.80;;;;;;4880477;29;20072;-70
2021/10/16 11:04:48;;;;;;;24.45;8.63;;;435.30;1331.20;;;;;;4880366;29;20151;-67
2021/10/16 11:07:33;;;;;;;112.40;15.45;;;435.40;1331.20;;;;;;4880497;29;20069;-66
2021/10/16 11:10:01;;;;;;;52.40;9.93;;;435.50;1408.00;;;;;;4880525;29;20116;-71
2021/10/16 11:12:32;;;;;;;31.48;9.90;;;435.50;1331.20;;;;;;4880481;29;20075;-72
2021/10/16 11:14:59;;;;;;;17.50;7.25;;;435.60;1331.20;;;;;;4900371;29;20095;-71
2021/10/16 11:17:52;;;;;;;14.73;7.47;;;435.60;1331.20;;;;;;4938765;29;20063;-74
2021/10/16 11:20:27;;;;;;;11.38;7.03;;;435.60;1305.60;;;;;;4931582;29;20035;-71
2021/10/16 11:22:54;;;;;;;9.63;6.95;;;435.60;1305.60;;;;;;4938681;29;20043;-74
2021/10/16 11:25:25;;;;;;;11.00;7.97;;;435.70;1331.20;;;;;;4938611;29;20051;-74
2021/10/16 11:28:09;;;;;;;11.52;8.38;;;435.60;1331.20;;;;;;4938962;29;20028;-71
2021/10/16 11:30:47;;;;;;;13.83;8.60;;;435.70;1305.60;;;;;;4938787;29;20035;-71
2021/10/16 11:33:15;;;;;;;13.40;9.02;;;435.70;1305.60;;;;;;4921535;29;20302;-71
2021/10/16 11:35:43;;;;;;;15.85;9.85;;;435.60;1280.00;;;;;;4938692;29;20382;-71
2021/10/16 11:38:11;;;;;;;19.60;10.07;;;435.70;1280.00;;;;;;4938515;29;20031;-73
2021/10/16 11:40:37;;;;;;;16.23;9.73;;;435.70;1280.00;;;;;;4938711;29;20036;-71
2021/10/16 11:43:10;;;;;;;13.07;8.93;;;435.70;1305.60;;;;;;4938209;29;20039;-73
2021/10/16 11:45:38;;;;;;;17.13;10.15;;;435.80;1280.00;;;;;;4921476;29;20040;-71
2021/10/16 11:48:06;;;;;;;14.77;9.00;;;435.90;1254.40;;;;;;4938411;29;20430;-73
2021/10/16 11:50:37;;;;;;;16.05;8.80;;;435.80;1254.40;;;;;;4938451;29;20070;-74
2021/10/16 11:53:16;;;;;;;12.70;9.02;;;435.80;1254.40;;;;;;4938164;29;20494;-74
2021/10/16 11:55:47;;;;;;;17.05;10.48;;;435.90;1254.40;;;;;;4937608;29;20449;-71
2021/10/16 11:58:16;;;;;;;21.38;10.18;;;435.90;1254.40;;;;;;4928661;29;20036;-72
2021/10/16 12:00:46;;;;;;;16.02;8.68;;;435.90;1254.40;;;;;;4925532;29;20043;-73
2021/10/16 12:03:14;;;;;;;11.15;7.72;;;436.00;1228.80;;;;;;4936493;29;20131;-71